createdAt,value
2018-07-15T00:02:06.052Z,5.40
2018-07-15T00:04:34.252Z,6.45
2018-07-15T00:07:02.310Z,5.37
2018-07-15T00:09:30.331Z,5.92
2018-07-15T00:11:58.384Z,6.10
2018-07-15T00:14:26.447Z,7.92
2018-07-15T00:16:54.484Z,9.38
2018-07-15T00:19:22.511Z,5.55
2018-07-15T00:21:50.549Z,4.70
2018-07-15T00:24:18.583Z,6.20
2018-07-15T00:26:46.617Z,8.43
2018-07-15T00:29:14.649Z,8.05
2018-07-15T00:31:42.692Z,7.22
2018-07-15T00:34:10.709Z,6.05
2018-07-15T00:36:38.744Z,5.65
2018-07-15T00:39:07.141Z,7.20
2018-07-15T00:41:35.216Z,6.90
2018-07-15T00:44:03.473Z,3.75
2018-07-15T00:46:31.528Z,6.83
2018-07-15T00:48:59.583Z,6.60
2018-07-15T00:51:27.624Z,6.15
2018-07-15T00:53:55.813Z,5.97
2018-07-15T00:56:23.897Z,4.97
2018-07-15T00:58:51.936Z,5.78
2018-07-15T01:01:19.968Z,7.45
2018-07-15T01:03:48.026Z,5.92
2018-07-15T01:06:16.092Z,4.85
2018-07-15T01:08:44.134Z,6.62
2018-07-15T01:11:12.169Z,5.45
2018-07-15T01:13:40.200Z,4.58
2018-07-15T01:16:08.253Z,5.20
2018-07-15T01:18:36.404Z,5.15
2018-07-15T01:21:04.469Z,6.28
2018-07-15T01:23:32.525Z,6.25
2018-07-15T01:26:00.573Z,7.50
2018-07-15T01:28:28.634Z,5.55
2018-07-15T01:30:56.664Z,6.45
2018-07-15T01:33:24.809Z,7.55
2018-07-15T01:35:52.833Z,5.67
2018-07-15T01:38:20.872Z,5.62
2018-07-15T01:40:48.912Z,6.65
2018-07-15T01:43:16.954Z,4.83
2018-07-15T01:45:44.992Z,3.83
2018-07-15T01:48:13.061Z,11.00
2018-07-15T01:50:41.086Z,8.58
2018-07-15T01:53:09.128Z,6.97
2018-07-15T01:55:45.240Z,8.65
2018-07-15T01:58:13.276Z,9.93
2018-07-15T02:00:41.342Z,7.75
2018-07-15T02:03:09.369Z,6.35
2018-07-15T02:05:37.418Z,6.33
2018-07-15T02:08:05.707Z,7.47
2018-07-15T02:10:33.752Z,10.23
2018-07-15T02:13:01.811Z,7.33
2018-07-15T02:15:29.851Z,4.83
2018-07-15T02:17:57.889Z,7.67
2018-07-15T02:20:26.104Z,7.97
2018-07-15T02:22:54.139Z,8.18
2018-07-15T02:25:22.165Z,6.70
2018-07-15T02:27:50.207Z,3.80
2018-07-15T02:30:18.232Z,4.22
2018-07-15T02:32:46.273Z,3.50
2018-07-15T02:35:14.344Z,4.22
2018-07-15T02:37:42.410Z,5.97
2018-07-15T02:40:10.428Z,5.33
2018-07-15T02:42:38.495Z,5.25
2018-07-15T02:45:06.545Z,6.60
2018-07-15T02:47:34.572Z,4.80
2018-07-15T02:50:02.623Z,6.22
2018-07-15T02:52:30.680Z,6.17
2018-07-15T02:54:58.716Z,5.20
2018-07-15T02:57:26.780Z,5.97
2018-07-15T02:59:54.864Z,10.88
2018-07-15T03:02:22.911Z,5.78
2018-07-15T03:04:50.967Z,4.97
2018-07-15T03:07:18.993Z,5.10
2018-07-15T03:09:47.033Z,5.28
2018-07-15T03:12:15.062Z,5.00
2018-07-15T03:14:43.104Z,5.45
2018-07-15T03:17:11.161Z,5.90
2018-07-15T03:19:39.184Z,6.47
2018-07-15T03:22:07.726Z,5.45
2018-07-15T03:24:35.780Z,6.62
2018-07-15T03:27:03.800Z,5.33
2018-07-15T03:29:31.833Z,5.83
2018-07-15T03:31:59.862Z,5.75
2018-07-15T03:34:27.896Z,7.28
2018-07-15T03:36:55.928Z,5.22
2018-07-15T03:39:23.983Z,6.33
2018-07-15T03:41:52.012Z,5.87
2018-07-15T03:44:20.049Z,8.08
2018-07-15T03:46:48.131Z,4.80
2018-07-15T03:49:16.176Z,5.55
2018-07-15T03:51:44.218Z,4.62
2018-07-15T03:54:12.261Z,7.28
2018-07-15T03:56:40.307Z,4.50
2018-07-15T03:59:08.362Z,4.45
2018-07-15T04:01:36.396Z,6.55
2018-07-15T04:04:04.456Z,5.85
2018-07-15T04:06:32.501Z,6.05
2018-07-15T04:09:00.622Z,9.00
2018-07-15T04:11:28.588Z,4.55
2018-07-15T04:13:56.648Z,6.53
2018-07-15T04:16:24.673Z,6.17
2018-07-15T04:18:52.712Z,6.12
2018-07-15T04:21:20.748Z,7.30
2018-07-15T04:23:48.789Z,7.50
2018-07-15T04:26:16.831Z,9.48
2018-07-15T04:28:44.864Z,6.60
2018-07-15T04:31:12.891Z,5.47
2018-07-15T04:33:40.959Z,4.65
2018-07-15T04:36:08.997Z,5.50
2018-07-15T04:38:37.028Z,5.70
2018-07-15T04:41:05.056Z,7.90
2018-07-15T04:43:33.112Z,4.70
2018-07-15T04:46:01.136Z,8.90
2018-07-15T04:48:29.164Z,7.40
2018-07-15T04:50:57.208Z,6.92
2018-07-15T04:53:25.227Z,3.92
2018-07-15T04:55:53.276Z,5.95
2018-07-15T04:58:21.336Z,4.95
2018-07-15T05:00:49.388Z,4.35
2018-07-15T05:03:17.472Z,5.62
2018-07-15T05:05:45.519Z,8.38
2018-07-15T05:08:13.568Z,4.65
2018-07-15T05:10:41.600Z,5.45
2018-07-15T05:13:09.628Z,4.97
2018-07-15T05:15:37.663Z,7.72
2018-07-15T05:18:05.692Z,6.28
2018-07-15T05:20:33.733Z,23.00
2018-07-15T05:23:01.757Z,5.78
2018-07-15T05:25:29.824Z,11.65
2018-07-15T05:27:57.856Z,7.45
2018-07-15T05:30:25.916Z,8.40
2018-07-15T05:32:53.956Z,5.67
2018-07-15T05:35:21.994Z,6.47
2018-07-15T05:37:50.015Z,9.70
2018-07-15T05:40:18.052Z,8.93
2018-07-15T05:42:46.099Z,7.60
2018-07-15T05:45:14.152Z,10.40
2018-07-15T05:47:42.241Z,6.40
2018-07-15T05:50:10.281Z,11.80
2018-07-15T05:52:38.312Z,10.95
2018-07-15T05:55:06.392Z,9.73
2018-07-15T05:57:34.443Z,9.80
2018-07-15T06:00:02.492Z,8.68
2018-07-15T06:02:30.512Z,9.15
2018-07-15T06:04:58.552Z,9.23
2018-07-15T06:07:26.583Z,9.80
2018-07-15T06:09:54.632Z,10.20
2018-07-15T06:12:22.664Z,9.05
2018-07-15T06:14:50.701Z,8.58
2018-07-15T06:17:18.752Z,10.25
2018-07-15T06:19:46.784Z,9.00
2018-07-15T06:22:14.923Z,6.45
2018-07-15T06:24:42.964Z,7.97
2018-07-15T06:27:11.008Z,9.55
2018-07-15T06:29:39.086Z,8.23
2018-07-15T06:32:07.154Z,7.17
2018-07-15T06:34:35.181Z,4.78
2018-07-15T06:37:03.325Z,6.25
2018-07-15T06:39:31.347Z,8.50
2018-07-15T06:41:59.388Z,6.50
2018-07-15T06:44:27.421Z,10.78
2018-07-15T06:46:55.464Z,8.80
2018-07-15T06:49:23.550Z,6.62
2018-07-15T06:51:51.532Z,7.08
2018-07-15T06:54:19.576Z,7.33
2018-07-15T06:56:47.608Z,8.65
2018-07-15T06:59:15.648Z,9.20
2018-07-15T07:01:43.687Z,5.12
2018-07-15T07:04:11.739Z,8.80
2018-07-15T07:06:39.772Z,9.38
2018-07-15T07:09:08.245Z,10.10
2018-07-15T07:11:37.220Z,7.47
2018-07-15T07:14:05.495Z,8.10
2018-07-15T07:16:33.712Z,9.55
2018-07-15T07:19:01.761Z,7.25
2018-07-15T07:21:29.832Z,14.47
2018-07-15T07:23:57.872Z,13.55
2018-07-15T07:26:25.957Z,7.42
2018-07-15T07:28:54.055Z,9.28
2018-07-15T07:31:22.098Z,9.38
2018-07-15T07:33:50.137Z,11.38
2018-07-15T07:36:18.228Z,15.40
2018-07-15T07:38:46.360Z,14.68
2018-07-15T07:41:14.426Z,11.80
2018-07-15T07:43:42.420Z,15.88
2018-07-15T07:46:10.493Z,13.75
2018-07-15T07:48:38.536Z,16.45
2018-07-15T07:51:06.587Z,17.02
2018-07-15T07:53:34.611Z,14.33
2018-07-15T07:56:02.699Z,11.93
2018-07-15T07:58:30.736Z,11.50
2018-07-15T08:00:58.804Z,17.82
2018-07-15T08:03:26.844Z,17.62
2018-07-15T08:05:54.920Z,21.55
2018-07-15T08:08:22.952Z,15.50
2018-07-15T08:10:51.000Z,18.80
2018-07-15T08:13:19.056Z,21.52
2018-07-15T08:15:47.101Z,30.77
2018-07-15T08:18:15.148Z,21.73
2018-07-15T08:20:43.231Z,40.15
2018-07-15T08:23:11.320Z,37.58
2018-07-15T08:25:39.352Z,26.33
2018-07-15T08:28:07.502Z,27.10
2018-07-15T08:30:46.811Z,27.60
2018-07-15T08:33:14.877Z,25.43
2018-07-15T08:35:42.955Z,37.95
2018-07-15T08:38:11.040Z,33.80
2018-07-15T08:40:39.182Z,30.75
2018-07-15T08:43:07.231Z,27.50
2018-07-15T08:45:35.269Z,21.95
2018-07-15T08:48:03.347Z,40.65
2018-07-15T08:50:31.395Z,31.27
2018-07-15T08:52:59.472Z,27.67
2018-07-15T08:55:27.507Z,29.65
2018-07-15T08:57:55.573Z,30.52
2018-07-15T09:00:23.632Z,29.32
2018-07-15T09:02:51.696Z,26.68
2018-07-15T09:05:19.740Z,26.30
2018-07-15T09:07:47.796Z,39.23
2018-07-15T09:10:15.851Z,39.25
2018-07-15T09:12:43.946Z,34.70
2018-07-15T09:15:11.933Z,36.68
2018-07-15T09:17:39.991Z,38.13
2018-07-15T09:20:08.041Z,25.37
2018-07-15T09:22:36.088Z,29.02
2018-07-15T09:25:04.151Z,32.58
2018-07-15T09:27:32.208Z,41.05
2018-07-15T09:30:00.271Z,32.53
2018-07-15T09:32:28.319Z,34.00
2018-07-15T09:34:56.376Z,29.10
2018-07-15T09:37:24.416Z,36.05
2018-07-15T09:39:52.447Z,40.67
2018-07-15T09:42:20.492Z,31.48
2018-07-15T09:44:48.548Z,37.75
2018-07-15T09:47:16.639Z,34.30
2018-07-15T09:49:44.700Z,41.55
2018-07-15T09:52:12.750Z,34.67
2018-07-15T09:54:40.819Z,32.75
2018-07-15T09:57:08.878Z,46.25
2018-07-15T09:59:36.916Z,47.10
2018-07-15T10:02:04.986Z,47.15
2018-07-15T10:04:33.050Z,47.53
2018-07-15T10:07:01.093Z,68.90
2018-07-15T10:09:29.144Z,56.33
2018-07-15T10:11:57.203Z,71.07
2018-07-15T10:14:25.240Z,44.40
2018-07-15T10:16:53.303Z,45.95
2018-07-15T10:19:21.374Z,64.62
2018-07-15T10:21:49.454Z,53.40
2018-07-15T10:24:17.515Z,70.67
2018-07-15T10:26:45.639Z,56.33
2018-07-15T10:29:13.684Z,70.20
2018-07-15T10:31:41.724Z,64.05
2018-07-15T10:34:09.828Z,58.80
2018-07-15T10:36:37.879Z,67.50
2018-07-15T10:39:06.216Z,49.50
2018-07-15T10:41:34.184Z,50.90
2018-07-15T10:44:02.262Z,38.78
2018-07-15T10:46:30.288Z,61.75
2018-07-15T10:48:58.367Z,46.20
2018-07-15T10:51:26.436Z,61.55
2018-07-15T10:53:54.483Z,48.30
2018-07-15T10:56:22.525Z,84.47
2018-07-15T10:58:50.617Z,58.02
2018-07-15T11:01:18.663Z,75.80
2018-07-15T11:03:46.735Z,58.55
2018-07-15T11:06:14.828Z,61.90
2018-07-15T11:08:42.815Z,57.93
2018-07-15T11:11:10.864Z,75.95
2018-07-15T11:13:38.935Z,56.23
2018-07-15T11:16:06.992Z,57.62
2018-07-15T11:18:35.053Z,60.85
2018-07-15T11:21:03.095Z,61.37
2018-07-15T11:23:31.164Z,77.95
2018-07-15T11:25:59.201Z,48.80
2018-07-15T11:28:27.245Z,60.90
2018-07-15T11:30:55.399Z,55.10
2018-07-15T11:33:23.348Z,58.90
2018-07-15T11:35:51.388Z,87.45
2018-07-15T11:38:19.453Z,75.87
2018-07-15T11:40:47.503Z,69.85
2018-07-15T11:43:15.565Z,82.15
2018-07-15T11:45:43.637Z,53.28
2018-07-15T11:48:11.727Z,73.85
2018-07-15T11:50:39.724Z,80.15
2018-07-15T11:53:07.787Z,74.27
2018-07-15T11:55:35.855Z,65.28
2018-07-15T11:58:03.885Z,59.42
2018-07-15T12:00:31.936Z,56.37
2018-07-15T12:03:00.005Z,94.70
2018-07-15T12:05:28.090Z,82.27
2018-07-15T12:07:56.125Z,57.10
2018-07-15T12:10:24.177Z,85.70
2018-07-15T12:12:52.228Z,62.40
2018-07-15T12:15:20.275Z,69.65
2018-07-15T12:17:48.334Z,49.27
2018-07-15T12:20:16.403Z,48.65
2018-07-15T12:22:44.448Z,61.35
2018-07-15T12:25:12.491Z,59.45
2018-07-15T12:27:40.525Z,67.08
2018-07-15T12:30:08.595Z,75.40
2018-07-15T12:32:36.656Z,92.50
2018-07-15T12:35:04.775Z,84.62
2018-07-15T12:37:32.805Z,97.90
2018-07-15T12:40:00.866Z,59.85
2018-07-15T12:42:28.908Z,70.83
2018-07-15T12:44:56.964Z,121.45
2018-07-15T12:47:25.013Z,67.32
2018-07-15T12:49:53.081Z,75.05
2018-07-15T12:52:21.133Z,82.65
2018-07-15T12:54:49.172Z,78.02
2018-07-15T12:57:17.240Z,75.05
2018-07-15T12:59:45.312Z,57.90
2018-07-15T13:02:13.372Z,51.68
2018-07-15T13:04:41.440Z,69.53
2018-07-15T13:07:09.516Z,58.13
2018-07-15T13:09:37.576Z,65.92
2018-07-15T13:12:05.637Z,55.92
2018-07-15T13:14:33.739Z,49.53
2018-07-15T13:17:01.777Z,63.90
2018-07-15T13:19:29.823Z,82.35
2018-07-15T13:21:57.876Z,64.25
2018-07-15T13:24:25.956Z,72.65
2018-07-15T13:26:54.026Z,76.47
2018-07-15T13:29:22.071Z,61.92
2018-07-15T13:31:50.112Z,55.08
2018-07-15T13:34:18.180Z,67.40
2018-07-15T13:36:46.267Z,70.65
2018-07-15T13:39:14.264Z,52.85
2018-07-15T13:41:42.375Z,58.28
2018-07-15T13:44:10.360Z,42.17
2018-07-15T13:46:38.452Z,86.08
2018-07-15T13:49:06.721Z,71.72
2018-07-15T13:51:34.777Z,62.62
2018-07-15T13:54:02.820Z,72.05
2018-07-15T13:56:30.881Z,74.65
2018-07-15T13:58:58.940Z,75.45
2018-07-15T14:01:26.992Z,60.80
2018-07-15T14:03:55.044Z,86.47
2018-07-15T14:06:23.104Z,72.93
2018-07-15T14:08:51.499Z,65.10
2018-07-15T14:11:19.541Z,81.27
2018-07-15T14:13:47.584Z,71.53
2018-07-15T14:16:15.645Z,110.97
2018-07-15T14:18:43.727Z,115.80
2018-07-15T14:21:11.784Z,113.50
2018-07-15T14:23:39.834Z,102.33
2018-07-15T14:26:07.888Z,89.17
2018-07-15T14:28:35.944Z,120.63
2018-07-15T14:31:04.047Z,97.80
2018-07-15T14:33:32.120Z,70.10
2018-07-15T14:36:00.165Z,76.20
2018-07-15T14:38:28.226Z,111.23
2018-07-15T14:40:56.276Z,77.87
2018-07-15T14:43:24.334Z,96.37
2018-07-15T14:45:52.371Z,78.63
2018-07-15T14:48:20.464Z,98.83
2018-07-15T14:50:48.559Z,68.67
2018-07-15T14:53:16.592Z,88.33
2018-07-15T14:55:44.677Z,115.67
2018-07-15T14:58:12.717Z,98.40
2018-07-15T15:00:40.781Z,137.07
2018-07-15T15:03:08.888Z,108.17
2018-07-15T15:05:36.937Z,93.37
2018-07-15T15:08:05.052Z,105.33
2018-07-15T15:10:33.335Z,91.13
2018-07-15T15:13:02.139Z,95.00
2018-07-15T15:15:30.192Z,97.25
2018-07-15T15:17:58.248Z,117.75
2018-07-15T15:20:26.340Z,95.77
2018-07-15T15:22:54.390Z,98.25
2018-07-15T15:25:22.485Z,97.10
2018-07-15T15:27:50.532Z,104.87
2018-07-15T15:30:18.578Z,72.55
2018-07-15T15:32:46.656Z,77.47
2018-07-15T15:35:14.722Z,85.72
2018-07-15T15:37:42.796Z,78.40
2018-07-15T15:40:10.931Z,80.03
2018-07-15T15:42:38.976Z,73.70
2018-07-15T15:45:07.305Z,72.32
2018-07-15T15:47:38.284Z,86.40
2018-07-15T15:50:12.820Z,66.82
2018-07-15T15:52:40.892Z,65.92
2018-07-15T15:55:08.935Z,62.40
2018-07-15T15:57:36.980Z,71.35
2018-07-15T16:00:05.331Z,45.10
2018-07-15T16:02:33.364Z,56.55
2018-07-15T16:05:01.424Z,65.85
2018-07-15T16:07:29.475Z,66.67
2018-07-15T16:09:57.524Z,54.03
2018-07-15T16:12:25.576Z,61.37
2018-07-15T16:14:53.632Z,67.35
2018-07-15T16:17:21.687Z,75.35
2018-07-15T16:19:49.741Z,54.90
2018-07-15T16:22:17.792Z,60.83
2018-07-15T16:24:45.832Z,52.00
2018-07-15T16:27:13.928Z,66.70
2018-07-15T16:29:41.979Z,68.75
2018-07-15T16:32:10.021Z,63.63
2018-07-15T16:34:38.075Z,88.95
2018-07-15T16:37:06.114Z,69.07
2018-07-15T16:39:34.181Z,60.28
2018-07-15T16:42:02.268Z,60.90
2018-07-15T16:44:30.323Z,78.30
2018-07-15T16:46:58.383Z,76.10
2018-07-15T16:49:26.424Z,72.05
2018-07-15T16:51:54.471Z,75.87
2018-07-15T16:54:22.552Z,52.55
2018-07-15T16:56:50.881Z,63.98
2018-07-15T16:59:18.963Z,69.80
2018-07-15T17:01:47.011Z,79.47
2018-07-15T17:04:15.054Z,48.23
2018-07-15T17:06:43.108Z,44.42
2018-07-15T17:09:11.156Z,67.92
2018-07-15T17:11:39.191Z,61.92
2018-07-15T17:14:07.336Z,52.62
2018-07-15T17:16:35.321Z,65.15
2018-07-15T17:19:03.371Z,59.77
2018-07-15T17:21:31.412Z,71.15
2018-07-15T17:23:59.463Z,49.48
2018-07-15T17:26:27.519Z,40.20
2018-07-15T17:28:55.560Z,38.75
2018-07-15T17:31:23.628Z,53.70
2018-07-15T17:33:51.684Z,38.20
2018-07-15T17:36:19.715Z,40.30
2018-07-15T17:38:47.757Z,53.75
2018-07-15T17:41:15.788Z,48.48
2018-07-15T17:43:44.243Z,41.13
2018-07-15T17:46:12.339Z,47.60
2018-07-15T17:48:40.416Z,34.92
2018-07-15T17:51:08.479Z,51.28
2018-07-15T17:53:37.024Z,36.60
2018-07-15T17:56:05.172Z,34.95
2018-07-15T17:58:33.261Z,59.42
2018-07-15T18:01:01.301Z,42.62
2018-07-15T18:03:29.376Z,43.17
2018-07-15T18:05:57.444Z,36.58
2018-07-15T18:08:25.477Z,36.83
2018-07-15T18:10:53.513Z,36.33
2018-07-15T18:13:21.579Z,39.18
2018-07-15T18:15:49.612Z,38.73
2018-07-15T18:18:17.672Z,33.92
2018-07-15T18:20:45.796Z,45.00
2018-07-15T18:23:13.818Z,52.05
2018-07-15T18:25:41.849Z,57.30
2018-07-15T18:28:09.920Z,50.33
2018-07-15T18:30:37.957Z,47.90
2018-07-15T18:33:06.056Z,49.88
2018-07-15T18:35:34.108Z,53.85
2018-07-15T18:38:02.188Z,36.53
2018-07-15T18:40:30.240Z,49.33
2018-07-15T18:42:58.316Z,35.43
2018-07-15T18:45:26.346Z,40.58
2018-07-15T18:47:54.480Z,33.23
2018-07-15T18:50:22.528Z,31.35
2018-07-15T18:52:50.593Z,36.25
2018-07-15T18:55:18.643Z,38.28
2018-07-15T18:57:46.711Z,37.80
2018-07-15T19:00:14.760Z,31.30
2018-07-15T19:02:42.809Z,42.03
2018-07-15T19:05:10.850Z,56.42
2018-07-15T19:07:38.928Z,48.42
2018-07-15T19:10:06.961Z,34.70
2018-07-15T19:12:35.023Z,34.75
2018-07-15T19:15:03.115Z,34.53
2018-07-15T19:17:31.160Z,28.92
2018-07-15T19:19:59.205Z,27.42
2018-07-15T19:22:27.244Z,29.65
2018-07-15T19:24:55.600Z,38.85
2018-07-15T19:27:23.640Z,40.30
2018-07-15T19:29:51.704Z,36.50
2018-07-15T19:32:19.736Z,30.20
2018-07-15T19:34:47.781Z,30.45
2018-07-15T19:37:15.820Z,42.53
2018-07-15T19:39:43.864Z,23.83
2018-07-15T19:42:11.904Z,29.80
2018-07-15T19:44:39.962Z,34.33
2018-07-15T19:47:07.996Z,37.53
2018-07-15T19:49:36.404Z,31.40
2018-07-15T19:52:04.469Z,23.60
2018-07-15T19:54:32.580Z,28.55
2018-07-15T19:57:00.671Z,24.43
2018-07-15T19:59:28.732Z,31.68
2018-07-15T20:01:56.781Z,25.80
2018-07-15T20:04:24.829Z,46.25
2018-07-15T20:06:52.915Z,26.00
2018-07-15T20:09:20.970Z,35.35
2018-07-15T20:11:49.015Z,23.52
2018-07-15T20:14:17.077Z,34.90
2018-07-15T20:16:45.127Z,27.00
2018-07-15T20:19:13.226Z,37.25
2018-07-15T20:21:41.357Z,18.57
2018-07-15T20:24:09.364Z,28.50
2018-07-15T20:26:37.423Z,32.55
2018-07-15T20:29:05.484Z,39.42
2018-07-15T20:31:33.536Z,36.55
2018-07-15T20:34:01.621Z,34.43
2018-07-15T20:36:29.680Z,25.88
2018-07-15T20:38:57.744Z,24.45
2018-07-15T20:41:25.792Z,33.20
2018-07-15T20:43:53.855Z,24.40
2018-07-15T20:46:21.921Z,27.15
2018-07-15T20:48:49.964Z,22.25
2018-07-15T20:51:18.028Z,25.82
2018-07-15T20:53:46.081Z,24.87
2018-07-15T20:56:14.159Z,28.17
2018-07-15T20:58:42.195Z,28.75
2018-07-15T21:01:10.249Z,24.27
2018-07-15T21:03:38.296Z,26.70
2018-07-15T21:06:07.140Z,27.58
2018-07-15T21:08:35.358Z,22.10
2018-07-15T21:11:03.414Z,26.37
2018-07-15T21:13:31.453Z,27.98
2018-07-15T21:15:59.492Z,23.45
2018-07-15T21:18:27.536Z,27.85
2018-07-15T21:20:55.589Z,36.38
2018-07-15T21:23:23.672Z,21.85
2018-07-15T21:25:51.717Z,19.92
2018-07-15T21:28:19.783Z,22.15
2018-07-15T21:30:47.831Z,17.77
2018-07-15T21:33:15.881Z,27.75
2018-07-15T21:35:43.960Z,27.80
2018-07-15T21:38:12.081Z,34.27
2018-07-15T21:40:40.188Z,29.42
2018-07-15T21:43:08.242Z,24.63
2018-07-15T21:45:36.326Z,30.48
2018-07-15T21:48:04.445Z,23.83
2018-07-15T21:50:32.516Z,29.87
2018-07-15T21:53:00.564Z,33.33
2018-07-15T21:55:28.755Z,28.15
2018-07-15T21:57:56.800Z,20.68
2018-07-15T22:00:24.869Z,25.50
2018-07-15T22:02:53.030Z,22.42
2018-07-15T22:05:21.080Z,18.35
2018-07-15T22:08:00.688Z,16.35
2018-07-15T22:10:36.718Z,19.60
2018-07-15T22:13:04.748Z,15.08
2018-07-15T22:15:32.800Z,20.62
2018-07-15T22:18:00.848Z,17.75
2018-07-15T22:20:28.892Z,25.43
2018-07-15T22:22:56.993Z,20.60
2018-07-15T22:25:25.092Z,24.60
2018-07-15T22:27:53.147Z,18.60
2018-07-15T22:30:21.219Z,16.50
2018-07-15T22:32:49.243Z,23.92
2018-07-15T22:35:17.296Z,18.95
2018-07-15T22:37:45.343Z,17.07
2018-07-15T22:40:13.419Z,15.58
2018-07-15T22:42:41.456Z,18.65
2018-07-15T22:45:09.528Z,16.75
2018-07-15T22:47:37.609Z,15.95
2018-07-15T22:50:05.648Z,16.87
2018-07-15T22:52:33.700Z,12.93
2018-07-15T22:55:01.868Z,17.12
2018-07-15T22:57:29.905Z,14.43
2018-07-15T22:59:57.944Z,9.80
2018-07-15T23:02:25.991Z,14.55
2018-07-15T23:06:03.070Z,19.77
2018-07-15T23:08:32.212Z,16.23
2018-07-15T23:11:00.272Z,17.55
2018-07-15T23:13:28.344Z,12.23
2018-07-15T23:15:56.392Z,8.93
2018-07-15T23:18:24.450Z,10.50
2018-07-15T23:20:52.673Z,10.68
2018-07-15T23:23:20.742Z,13.58
2018-07-15T23:25:48.812Z,13.65
2018-07-15T23:28:17.604Z,10.28
2018-07-15T23:30:46.083Z,11.28
2018-07-15T23:33:14.200Z,11.10
2018-07-15T23:35:42.233Z,13.98
2018-07-15T23:38:10.263Z,13.30
2018-07-15T23:40:38.300Z,12.35
2018-07-15T23:43:06.339Z,10.35
2018-07-15T23:45:35.209Z,11.03
2018-07-15T23:48:03.250Z,9.48
2018-07-15T23:50:31.283Z,12.63
2018-07-15T23:52:59.355Z,12.35
2018-07-15T23:55:27.397Z,10.38
2018-07-15T23:57:55.564Z,12.13
